首页
METAR-TAF:

METAR-TAF

机场 :

帕波, 匈牙利

纬度: 47-12N, 经度: 017-30E, 海拔: 145米

当前天气观测

该预报发布于33分钟前的08:15 UTC
风速12节,风向,在东南南转西南之间变化
温度 18°C
湿度 34%
气压 1019 hPa
能见度10公里或以上
1500米以下无云,无积雨云

METAR: LHPA 220815Z 17012KT 130V200 CAVOK 18/02 Q1019 NOSIG RMK BLU

时间: 10:48 (08:48 UTC)

预报

该预报发布于3小时和33分钟前的05:15 UTC
预报有效从22日的 06点(UTC)到 23日的 06点(UTC)
风速3节,风向多变
能见度10公里或以上
1500米以下无云,无积雨云
成为
从 22日的 06点(UTC)到 22日的 08点(UTC)
风速10节,风向
短暂存在
从 22日的 10点(UTC)到 22日的 18点(UTC)
风速12节,风向,有时为24节阵风
成为
从 22日的 20点(UTC)到 22日的 22点(UTC)
能见度10公里或以上
散云层高于4000英尺
多云层高于8300英尺
阴天层高于20000英尺
几率 40% :
短暂存在
从 23日的 00点(UTC)到 23日的 06点(UTC)
能見度: 8000
少量云层高于3300英尺, 塔状积云.
多云层高于8300英尺
阴天层高于20000英尺
雨, 小阵雨

TAF: LHPA 220515Z 2206/2306 VRB03KT CAVOK BECMG 2206/2208 17010KT TEMPO 2210/2218 17012G24KT BECMG 2220/2222 9999 SCT040 BKN083 OVC200 PROB40 TEMPO 2300/2306 8000 RA -SHRA FEW033TCU BKN083 OVC200

超过4000个机场的气象观测和天气预报(METAR&TAF报告)。

可查询的气象台以黄色和红色小点在地图上表示。

将鼠标移到小点上方,可查看气象台名称。

然后点击查看天气观测和预报。

如需切换地图:点击带黑十字的绿色按钮放大地图;点击带横线的绿色按钮缩小地图;或者点击绿色箭头查看邻近地区的地图。


METAR-TAF: